createdAt,value
2019-05-22T00:01:58.923Z,26.42
2019-05-22T00:04:50.676Z,27.98
2019-05-22T00:07:38.589Z,26.17
2019-05-22T00:10:26.636Z,28.98
2019-05-22T00:13:18.253Z,28.77
2019-05-22T00:16:05.858Z,29.75
2019-05-22T00:18:53.691Z,26.00
2019-05-22T00:21:42.836Z,35.25
2019-05-22T00:24:29.955Z,27.60
2019-05-22T00:27:17.896Z,29.15
2019-05-22T00:30:09.501Z,28.98
2019-05-22T00:32:57.898Z,31.50
2019-05-22T00:35:45.457Z,30.52
2019-05-22T00:38:36.194Z,31.95
2019-05-22T00:41:24.687Z,29.45
2019-05-22T00:44:13.849Z,31.10
2019-05-22T00:47:01.767Z,27.70
2019-05-22T00:49:52.450Z,30.20
2019-05-22T00:52:44.781Z,33.23
2019-05-22T00:55:43.916Z,34.10
2019-05-22T00:58:50.691Z,38.08
2019-05-22T01:01:45.728Z,36.70
2019-05-22T01:04:35.424Z,32.48
2019-05-22T01:07:31.720Z,35.68
2019-05-22T01:10:18.620Z,31.75
2019-05-22T01:13:07.555Z,28.77
2019-05-22T01:15:55.790Z,27.70
2019-05-22T01:18:43.716Z,30.43
2019-05-22T01:21:33.310Z,30.75
2019-05-22T01:24:20.731Z,29.45
2019-05-22T01:27:09.461Z,30.77
2019-05-22T01:29:57.493Z,29.60
2019-05-22T01:32:46.354Z,28.92
2019-05-22T01:35:35.675Z,26.45
2019-05-22T01:38:23.191Z,27.48
2019-05-22T01:41:17.942Z,28.05
2019-05-22T01:44:06.790Z,21.73
2019-05-22T01:46:56.458Z,24.72
2019-05-22T01:49:51.502Z,23.87
2019-05-22T01:52:40.200Z,25.65
2019-05-22T01:55:27.819Z,23.65
2019-05-22T01:58:15.848Z,20.75
2019-05-22T02:01:05.388Z,22.42
2019-05-22T02:04:03.922Z,29.15
2019-05-22T02:06:51.161Z,20.68
2019-05-22T02:09:40.671Z,22.42
2019-05-22T02:12:35.316Z,22.55
2019-05-22T02:15:24.804Z,19.50
2019-05-22T02:18:16.588Z,19.98
2019-05-22T02:21:04.477Z,18.82
2019-05-22T02:23:52.542Z,20.10
2019-05-22T02:26:40.423Z,24.77
2019-05-22T02:29:29.156Z,24.20
2019-05-22T02:32:17.735Z,24.87
2019-05-22T02:35:08.427Z,28.40
2019-05-22T02:37:57.238Z,25.10
2019-05-22T02:40:49.388Z,26.17
2019-05-22T02:43:37.182Z,25.37
2019-05-22T02:46:24.589Z,24.92
2019-05-22T02:49:13.899Z,25.32
2019-05-22T02:52:01.931Z,29.32
2019-05-22T02:54:49.829Z,26.40
2019-05-22T02:57:37.708Z,27.22
2019-05-22T03:00:29.342Z,27.62
2019-05-22T03:03:20.243Z,27.25
2019-05-22T03:06:14.077Z,28.67
2019-05-22T03:09:05.461Z,26.15
2019-05-22T03:12:02.235Z,28.45
2019-05-22T03:14:48.925Z,29.85
2019-05-22T03:17:38.607Z,30.25
2019-05-22T03:20:26.707Z,33.33
2019-05-22T03:23:26.695Z,27.98
2019-05-22T03:26:16.801Z,26.00
2019-05-22T03:29:04.597Z,32.03
2019-05-22T03:31:52.783Z,30.27
2019-05-22T03:34:40.664Z,31.42
2019-05-22T03:37:27.874Z,32.35
2019-05-22T03:40:15.820Z,32.93
2019-05-22T03:43:06.148Z,37.28
2019-05-22T03:45:55.981Z,37.45
2019-05-22T03:48:44.761Z,32.55
2019-05-22T03:51:32.977Z,36.25
2019-05-22T03:54:21.693Z,33.67
2019-05-22T03:57:10.348Z,38.20
2019-05-22T03:59:58.295Z,30.62
2019-05-22T04:02:51.220Z,33.45
2019-05-22T04:05:38.681Z,33.75
2019-05-22T04:08:26.444Z,33.67
2019-05-22T04:11:14.437Z,31.33
2019-05-22T04:14:01.940Z,32.53
2019-05-22T04:16:51.137Z,30.32
2019-05-22T04:19:49.440Z,30.55
2019-05-22T04:22:29.739Z,31.15
2019-05-22T04:25:18.798Z,29.60
2019-05-22T04:28:06.099Z,27.32
2019-05-22T04:30:53.604Z,23.52
2019-05-22T04:33:40.750Z,28.05
2019-05-22T04:36:29.107Z,26.37
2019-05-22T04:39:20.487Z,28.12
2019-05-22T04:42:11.720Z,26.02
2019-05-22T04:45:15.198Z,25.52
2019-05-22T04:48:03.612Z,27.30
2019-05-22T04:50:51.930Z,26.93
2019-05-22T04:53:39.400Z,26.10
2019-05-22T04:56:28.133Z,25.23
2019-05-22T04:59:16.285Z,26.42
2019-05-22T05:02:05.180Z,24.98
2019-05-22T05:04:54.075Z,25.15
2019-05-22T05:07:41.570Z,25.62
2019-05-22T05:10:28.911Z,23.73
2019-05-22T05:13:16.636Z,28.92
2019-05-22T05:16:04.718Z,23.15
2019-05-22T05:18:51.992Z,23.15
2019-05-22T05:21:38.867Z,29.82
2019-05-22T05:24:25.996Z,26.37
2019-05-22T05:27:13.641Z,27.05
2019-05-22T05:30:00.742Z,25.60
2019-05-22T05:32:47.844Z,27.75
2019-05-22T05:35:35.910Z,28.25
2019-05-22T05:38:38.357Z,28.02
2019-05-22T05:41:25.479Z,24.98
2019-05-22T05:44:12.836Z,23.45
2019-05-22T05:47:00.668Z,24.55
2019-05-22T05:49:49.115Z,17.85
2019-05-22T05:52:37.896Z,16.27
2019-05-22T05:55:27.419Z,18.30
2019-05-22T05:58:29.424Z,18.45
2019-05-22T06:01:20.034Z,16.23
2019-05-22T06:04:08.291Z,13.90
2019-05-22T06:07:00.889Z,17.92
2019-05-22T06:09:50.111Z,12.33
2019-05-22T06:12:37.558Z,12.47
2019-05-22T06:15:47.216Z,11.38
2019-05-22T06:18:37.310Z,12.68
2019-05-22T06:21:24.771Z,11.40
2019-05-22T06:24:33.021Z,15.50
2019-05-22T06:27:25.432Z,10.98
2019-05-22T06:30:21.580Z,11.60
2019-05-22T06:33:13.569Z,11.33
2019-05-22T06:36:04.732Z,10.38
2019-05-22T06:38:59.312Z,12.47
2019-05-22T06:41:48.049Z,11.60
2019-05-22T06:44:36.190Z,12.13
2019-05-22T06:47:25.615Z,12.15
2019-05-22T06:50:12.847Z,13.72
2019-05-22T06:53:09.876Z,13.90
2019-05-22T06:55:51.258Z,13.72
2019-05-22T06:58:38.337Z,15.18
2019-05-22T07:01:25.913Z,15.55
2019-05-22T07:04:14.128Z,15.93
2019-05-22T07:07:01.350Z,15.10
2019-05-22T07:09:49.608Z,13.28
2019-05-22T07:12:37.072Z,11.85
2019-05-22T07:15:27.240Z,11.73
2019-05-22T07:18:16.178Z,10.53
2019-05-22T07:21:04.166Z,11.22
2019-05-22T07:23:51.354Z,10.40
2019-05-22T07:26:39.044Z,9.85
2019-05-22T07:29:27.026Z,10.20
2019-05-22T07:32:14.063Z,11.38
2019-05-22T07:35:02.743Z,11.18
2019-05-22T07:37:50.792Z,9.33
2019-05-22T07:40:38.252Z,8.75
2019-05-22T07:43:26.207Z,10.80
2019-05-22T07:46:16.623Z,10.58
2019-05-22T07:49:04.887Z,9.18
2019-05-22T07:52:00.668Z,9.73
2019-05-22T07:54:42.005Z,9.33
2019-05-22T07:57:30.413Z,12.53
2019-05-22T08:00:18.483Z,6.90
2019-05-22T08:03:06.677Z,8.18
2019-05-22T08:05:56.163Z,6.15
2019-05-22T08:08:44.432Z,7.58
2019-05-22T08:11:31.867Z,8.13
2019-05-22T08:14:21.238Z,7.28
2019-05-22T08:17:10.530Z,5.33
2019-05-22T08:19:57.587Z,8.05
2019-05-22T08:22:47.483Z,6.37
2019-05-22T08:25:34.821Z,6.28
2019-05-22T08:28:22.209Z,9.78
2019-05-22T08:31:11.107Z,6.47
2019-05-22T08:33:59.406Z,6.70
2019-05-22T08:36:49.143Z,7.92
2019-05-22T08:39:38.073Z,6.97
2019-05-22T08:42:26.683Z,11.10
2019-05-22T08:45:17.889Z,8.13
2019-05-22T08:48:05.817Z,6.80
2019-05-22T08:50:53.979Z,7.97
2019-05-22T08:53:47.461Z,7.47
2019-05-22T08:56:39.152Z,6.58
2019-05-22T08:59:26.914Z,9.23
2019-05-22T09:02:15.279Z,8.10
2019-05-22T09:05:02.153Z,9.10
2019-05-22T09:07:49.539Z,10.35
2019-05-22T09:10:37.589Z,15.13
2019-05-22T09:13:25.080Z,12.60
2019-05-22T09:16:14.337Z,11.60
2019-05-22T09:19:02.250Z,10.80
2019-05-22T09:21:49.182Z,12.43
2019-05-22T09:24:36.747Z,11.25
2019-05-22T09:27:24.150Z,11.60
2019-05-22T09:30:12.618Z,12.43
2019-05-22T09:33:00.397Z,12.60
2019-05-22T09:35:48.221Z,16.48
2019-05-22T09:38:35.680Z,16.45
2019-05-22T09:41:22.874Z,14.73
2019-05-22T09:44:09.977Z,18.20
2019-05-22T09:46:57.217Z,17.80
2019-05-22T09:49:44.390Z,25.08
2019-05-22T09:52:32.310Z,21.07
2019-05-22T09:55:19.641Z,19.30
2019-05-22T09:58:08.341Z,26.80
2019-05-22T10:00:55.859Z,25.80
2019-05-22T10:03:43.122Z,20.20
2019-05-22T10:06:30.273Z,20.00
2019-05-22T10:09:17.485Z,19.95
2019-05-22T10:12:05.579Z,25.08
2019-05-22T10:14:53.089Z,20.88
2019-05-22T10:17:43.415Z,20.97
2019-05-22T10:20:31.224Z,22.40
2019-05-22T10:23:18.694Z,28.00
2019-05-22T10:26:06.287Z,28.45
2019-05-22T10:28:53.758Z,24.30
2019-05-22T10:31:40.440Z,18.70
2019-05-22T10:34:27.618Z,26.15
2019-05-22T10:37:14.787Z,27.60
2019-05-22T10:40:02.816Z,32.90
2019-05-22T10:42:53.597Z,26.10
2019-05-22T10:45:44.916Z,25.52
2019-05-22T10:48:32.459Z,23.55
2019-05-22T10:51:20.259Z,26.75
2019-05-22T10:54:07.341Z,27.55
2019-05-22T10:56:54.522Z,22.85
2019-05-22T10:59:41.971Z,26.15
2019-05-22T11:02:29.181Z,19.48
2019-05-22T11:05:17.868Z,23.12
2019-05-22T11:08:05.412Z,23.20
2019-05-22T11:10:53.009Z,25.95
2019-05-22T11:13:40.352Z,23.73
2019-05-22T11:16:27.796Z,24.67
2019-05-22T11:19:15.582Z,25.27
2019-05-22T11:22:03.213Z,25.37
2019-05-22T11:24:50.378Z,26.27
2019-05-22T11:27:39.152Z,30.05
2019-05-22T11:30:26.678Z,29.15
2019-05-22T11:33:14.533Z,24.98
2019-05-22T11:36:03.318Z,23.65
2019-05-22T11:38:51.563Z,22.82
2019-05-22T11:41:39.886Z,24.25
2019-05-22T11:44:27.640Z,25.08
2019-05-22T11:47:17.130Z,24.47
2019-05-22T11:50:09.818Z,23.40
2019-05-22T11:52:56.747Z,21.70
2019-05-22T11:55:46.090Z,24.95
2019-05-22T11:58:32.910Z,25.15
2019-05-22T12:01:20.337Z,23.05
2019-05-22T12:04:11.264Z,25.17
2019-05-22T12:06:59.413Z,22.65
2019-05-22T12:09:47.218Z,21.62
2019-05-22T12:12:35.630Z,23.32
2019-05-22T12:15:26.278Z,27.25
2019-05-22T12:18:15.161Z,23.62
2019-05-22T12:21:02.774Z,29.67
2019-05-22T12:23:50.887Z,25.95
2019-05-22T12:26:39.804Z,27.20
2019-05-22T12:29:28.792Z,25.82
2019-05-22T12:32:16.327Z,27.02
2019-05-22T12:35:04.656Z,22.70
2019-05-22T12:37:57.509Z,26.00
2019-05-22T12:40:46.456Z,24.00
2019-05-22T12:43:35.094Z,27.55
2019-05-22T12:46:22.552Z,28.73
2019-05-22T12:49:11.652Z,28.80
2019-05-22T12:52:00.820Z,23.77
2019-05-22T12:54:52.602Z,28.55
2019-05-22T12:57:37.511Z,27.85
2019-05-22T13:00:29.183Z,22.62
2019-05-22T13:03:16.790Z,22.00
2019-05-22T13:06:05.073Z,20.97
2019-05-22T13:08:53.474Z,21.65
2019-05-22T13:11:41.276Z,23.18
2019-05-22T13:14:28.852Z,21.27
2019-05-22T13:17:17.078Z,20.12
2019-05-22T13:20:07.589Z,22.13
2019-05-22T13:22:57.033Z,23.22
2019-05-22T13:25:45.193Z,20.37
2019-05-22T13:28:33.534Z,21.85
2019-05-22T13:31:21.132Z,19.65
2019-05-22T13:34:08.846Z,19.37
2019-05-22T13:36:57.012Z,18.40
2019-05-22T13:39:44.129Z,21.45
2019-05-22T13:42:31.642Z,19.70
2019-05-22T13:45:29.075Z,21.05
2019-05-22T13:48:10.393Z,17.50
2019-05-22T13:50:59.145Z,16.73
2019-05-22T13:53:46.176Z,17.17
2019-05-22T13:56:33.503Z,16.05
2019-05-22T13:59:21.432Z,21.93
2019-05-22T14:02:08.689Z,19.48
2019-05-22T14:04:55.722Z,18.62
2019-05-22T14:07:42.953Z,15.58
2019-05-22T14:10:31.283Z,19.60
2019-05-22T14:13:19.203Z,22.27
2019-05-22T14:16:06.147Z,17.87
2019-05-22T14:18:53.309Z,20.80
2019-05-22T14:21:40.276Z,17.05
2019-05-22T14:24:27.447Z,18.12
2019-05-22T14:27:14.702Z,15.90
2019-05-22T14:30:05.196Z,15.10
2019-05-22T14:32:52.614Z,13.98
2019-05-22T14:35:48.366Z,16.45
2019-05-22T14:38:31.141Z,14.25
2019-05-22T14:41:18.234Z,17.85
2019-05-22T14:44:05.351Z,21.33
2019-05-22T14:46:52.711Z,18.60
2019-05-22T14:49:40.565Z,18.37
2019-05-22T14:52:28.371Z,13.85
2019-05-22T14:55:17.972Z,14.03
2019-05-22T14:58:06.270Z,15.28
2019-05-22T15:00:54.016Z,14.87
2019-05-22T15:03:41.233Z,15.25
2019-05-22T15:06:28.457Z,15.58
2019-05-22T15:09:16.335Z,15.25
2019-05-22T15:12:03.697Z,17.55
2019-05-22T15:14:51.079Z,17.02
2019-05-22T15:17:39.181Z,17.10
2019-05-22T15:20:29.021Z,18.32
2019-05-22T15:23:17.008Z,13.90
2019-05-22T15:26:05.049Z,11.95
2019-05-22T15:28:52.333Z,12.23
2019-05-22T15:31:40.152Z,16.20
2019-05-22T15:34:28.886Z,13.30
2019-05-22T15:37:19.383Z,12.78
2019-05-22T15:40:08.954Z,14.98
2019-05-22T15:42:56.309Z,16.75
2019-05-22T15:45:43.777Z,15.28
2019-05-22T15:48:33.874Z,12.63
2019-05-22T15:51:25.946Z,15.60
2019-05-22T15:54:14.283Z,14.50
2019-05-22T15:57:03.519Z,15.88
2019-05-22T15:59:51.967Z,14.68
2019-05-22T16:02:41.306Z,12.98
2019-05-22T16:05:29.678Z,18.70
2019-05-22T16:08:18.219Z,16.60
2019-05-22T16:11:09.326Z,14.68
2019-05-22T16:13:59.621Z,14.83
2019-05-22T16:16:49.307Z,17.12
2019-05-22T16:19:36.987Z,16.77
2019-05-22T16:22:25.272Z,16.95
2019-05-22T16:25:13.825Z,15.55
2019-05-22T16:28:02.721Z,14.98
2019-05-22T16:30:49.955Z,15.68
2019-05-22T16:33:40.727Z,14.05
2019-05-22T16:36:29.475Z,15.30
2019-05-22T16:39:17.604Z,15.00
2019-05-22T16:42:05.908Z,12.85
2019-05-22T16:44:53.087Z,17.20
2019-05-22T16:47:41.250Z,13.08
2019-05-22T16:50:29.032Z,14.23
2019-05-22T16:53:17.844Z,13.58
2019-05-22T16:56:05.783Z,15.13
2019-05-22T16:58:54.594Z,16.45
2019-05-22T17:01:57.821Z,17.87
2019-05-22T17:04:31.389Z,13.98
2019-05-22T17:07:19.568Z,12.28
2019-05-22T17:10:08.064Z,13.50
2019-05-22T17:12:57.306Z,12.82
2019-05-22T17:15:45.425Z,13.00
2019-05-22T17:18:46.860Z,14.90
2019-05-22T17:21:23.257Z,13.62
2019-05-22T17:24:11.663Z,13.48
2019-05-22T17:26:58.713Z,17.05
2019-05-22T17:29:46.324Z,13.28
2019-05-22T17:32:33.633Z,11.45
2019-05-22T17:35:22.775Z,14.18
2019-05-22T17:38:10.595Z,12.85
2019-05-22T17:40:59.060Z,13.15
2019-05-22T17:43:46.503Z,14.23
2019-05-22T17:46:33.946Z,10.98
2019-05-22T17:49:21.221Z,11.35
2019-05-22T17:52:12.002Z,11.95
2019-05-22T17:54:58.339Z,10.63
2019-05-22T17:57:45.055Z,12.85
2019-05-22T18:00:36.741Z,12.50
2019-05-22T18:03:23.768Z,12.50
2019-05-22T18:06:10.383Z,13.55
2019-05-22T18:08:57.475Z,13.70
2019-05-22T18:11:44.521Z,11.78
2019-05-22T18:14:31.578Z,13.20
2019-05-22T18:17:19.219Z,10.98
2019-05-22T18:20:07.847Z,10.98
2019-05-22T18:22:54.826Z,11.40
2019-05-22T18:28:28.063Z,10.78
2019-05-22T18:31:15.156Z,13.30
2019-05-22T18:34:01.890Z,11.03
2019-05-22T18:36:49.205Z,14.98
2019-05-22T18:39:36.868Z,12.75
2019-05-22T18:42:24.450Z,12.98
2019-05-22T18:45:13.261Z,12.23
2019-05-22T18:48:00.528Z,16.02
2019-05-22T18:50:48.240Z,14.03
2019-05-22T18:53:35.549Z,12.70
2019-05-22T18:56:22.684Z,13.83
2019-05-22T18:59:10.148Z,14.70
2019-05-22T19:01:57.443Z,14.23
2019-05-22T19:04:44.546Z,16.05
2019-05-22T19:07:32.010Z,15.32
2019-05-22T19:10:20.148Z,16.82
2019-05-22T19:13:07.830Z,19.62
2019-05-22T19:15:55.324Z,14.93
2019-05-22T19:18:42.622Z,16.37
2019-05-22T19:21:30.132Z,15.40
2019-05-22T19:24:17.667Z,19.80
2019-05-22T19:27:05.189Z,17.62
2019-05-22T19:29:52.601Z,18.48
2019-05-22T19:32:40.089Z,17.77
2019-05-22T19:35:27.187Z,18.15
2019-05-22T19:38:14.722Z,20.10
2019-05-22T19:41:02.788Z,18.17
2019-05-22T19:43:50.228Z,16.75
2019-05-22T19:46:37.414Z,17.37
2019-05-22T19:49:25.174Z,21.05
2019-05-22T19:52:12.492Z,23.50
2019-05-22T19:55:00.182Z,20.15
2019-05-22T19:57:47.088Z,19.75
2019-05-22T20:03:21.005Z,17.48
2019-05-22T20:06:08.571Z,18.52
2019-05-22T20:08:56.252Z,19.12
2019-05-22T20:11:43.985Z,18.20
2019-05-22T20:14:31.012Z,20.43
2019-05-22T20:17:18.154Z,22.07
2019-05-22T20:20:08.522Z,19.00
2019-05-22T20:22:56.598Z,20.35
2019-05-22T20:25:43.638Z,19.15
2019-05-22T20:28:31.727Z,18.55
2019-05-22T20:31:19.342Z,18.15
2019-05-22T20:34:07.592Z,17.45
2019-05-22T20:36:55.469Z,18.62
2019-05-22T20:39:42.423Z,18.48
2019-05-22T20:42:31.905Z,20.05
2019-05-22T20:45:20.825Z,17.05
2019-05-22T20:48:12.131Z,20.27
2019-05-22T20:51:01.047Z,18.87
2019-05-22T20:53:53.946Z,18.92
2019-05-22T20:56:39.695Z,19.62
2019-05-22T20:59:27.118Z,18.05
2019-05-22T21:02:15.759Z,17.17
2019-05-22T21:05:05.709Z,21.62
2019-05-22T21:07:56.720Z,18.48
2019-05-22T21:10:46.673Z,16.62
2019-05-22T21:13:34.417Z,15.93
2019-05-22T21:16:22.996Z,18.70
2019-05-22T21:19:11.497Z,20.00
2019-05-22T21:22:00.363Z,19.52
2019-05-22T21:24:49.950Z,18.25
2019-05-22T21:27:38.245Z,20.00
2019-05-22T21:30:27.884Z,19.42
2019-05-22T21:33:15.623Z,21.25
2019-05-22T21:36:04.820Z,16.65
2019-05-22T21:38:51.851Z,15.13
2019-05-22T21:41:39.834Z,16.97
2019-05-22T21:44:27.575Z,17.07
2019-05-22T21:47:16.478Z,19.10
2019-05-22T21:50:04.968Z,15.50
2019-05-22T21:52:53.037Z,15.40
2019-05-22T21:55:45.431Z,18.23
2019-05-22T21:58:30.339Z,15.20
2019-05-22T22:01:19.518Z,21.52
2019-05-22T22:04:17.961Z,13.98
2019-05-22T22:07:05.880Z,14.80
2019-05-22T22:09:53.506Z,15.32
2019-05-22T22:12:41.681Z,15.25
2019-05-22T22:15:30.941Z,14.65
2019-05-22T22:18:19.728Z,15.55
2019-05-22T22:21:07.861Z,16.97
2019-05-22T22:23:55.234Z,13.60
2019-05-22T22:26:43.137Z,16.27
2019-05-22T22:29:30.650Z,16.23
2019-05-22T22:32:18.449Z,20.60
2019-05-22T22:35:09.183Z,16.00
2019-05-22T22:37:57.812Z,15.40
2019-05-22T22:40:47.647Z,13.83
2019-05-22T22:43:37.527Z,14.18
2019-05-22T22:46:29.110Z,20.43
2019-05-22T22:49:18.814Z,15.50
2019-05-22T22:52:06.185Z,20.95
2019-05-22T22:54:54.321Z,13.55
2019-05-22T22:57:42.135Z,19.35
2019-05-22T23:00:34.704Z,13.28
2019-05-22T23:03:24.616Z,20.00
2019-05-22T23:06:14.137Z,13.13
2019-05-22T23:09:02.008Z,16.35
2019-05-22T23:11:49.588Z,15.38
2019-05-22T23:14:38.453Z,13.03
2019-05-22T23:17:26.676Z,14.90
2019-05-22T23:20:13.405Z,14.23
2019-05-22T23:22:59.577Z,14.45
2019-05-22T23:25:47.326Z,15.43
2019-05-22T23:28:35.270Z,16.12
2019-05-22T23:31:22.515Z,14.55
2019-05-22T23:34:10.076Z,20.45
2019-05-22T23:36:57.969Z,17.00
2019-05-22T23:39:47.545Z,16.40
2019-05-22T23:42:39.433Z,15.72
2019-05-22T23:45:26.825Z,15.00
2019-05-22T23:48:15.871Z,15.85
2019-05-22T23:51:02.903Z,17.90
2019-05-22T23:53:51.134Z,16.45
2019-05-22T23:56:39.853Z,14.03
2019-05-22T23:59:27.866Z,14.75
